METAR Data
IDs: Format: Raw Decoded Include TAF

Data at: 1716 UTC 21 Sep 2018

KDKR 211650Z AUTO 16003KT 10SM 29/25 A3002 RMK AO2
KDKR 211630Z AUTO 15006KT 10SM 28/25 A3003 RMK AO2
KDKR 211610Z AUTO 00000KT 10SM 28/25 A3003 RMK AO2
KDKR 211550Z AUTO 13003KT 9SM -RA 28/25 A3003 RMK AO2
KDKR 211530Z AUTO 14005KT 10SM 28/25 A3003 RMK AO2
KDKR 211510Z AUTO 14004KT 10SM 27/24 A3002 RMK AO2
KDKR 211450Z AUTO 14006KT 10SM 28/24 A3002 RMK AO2
KDKR 211430Z AUTO 13003KT 10SM 27/24 A3002 RMK AO2
KDKR 211410Z AUTO 13004KT 10SM 26/24 A3002 RMK AO2
KDKR 211350Z AUTO 15004KT 10SM 25/24 A3003 RMK AO2
KDKR 211330Z AUTO 00000KT 9SM -RA 25/24 A3003 RMK AO2
KDKR 211310Z AUTO 13003KT 10SM 25/24 A3002 RMK AO2
KDKR 211250Z AUTO 11003KT 10SM 25/24 A3001 RMK AO2
KDKR 211230Z AUTO 09003KT 10SM 25/24 A3001 RMK AO2
KDKR 211210Z AUTO 00000KT 5SM -RA 25/24 A3001 RMK AO2
KDKR 211150Z AUTO 11003KT 10SM 25/24 A3000 RMK AO2
KDKR 211130Z AUTO 11003KT 10SM 25/24 A3000 RMK AO2
KDKR 211110Z AUTO 11003KT 10SM 25/24 A3000 RMK AO2
KDKR 211050Z AUTO 00000KT 10SM 25/24 A3000 RMK AO2
KDKR 211030Z AUTO 00000KT 10SM 25/24 A3000 RMK AO2
KDKR 211010Z AUTO 00000KT 10SM 25/24 A2999 RMK AO2
KDKR 210950Z AUTO 12004KT 10SM 25/24 A2999 RMK AO2
KDKR 210930Z AUTO 13003KT 10SM 25/24 A2998 RMK AO2
KDKR 210910Z AUTO 12003KT 10SM 25/24 A2999 RMK AO2
KDKR 210850Z AUTO 00000KT 10SM 24/23 A2998 RMK AO2
KDKR 210830Z AUTO 00000KT 10SM 24/23 A2999 RMK AO2
KDKR 210810Z AUTO 00000KT 10SM 24/23 A2998 RMK AO2
KDKR 210750Z AUTO 00000KT 10SM 24/23 A2998 RMK AO2
KDKR 210730Z AUTO 12003KT 10SM 24/23 A2998 RMK AO2
KDKR 210710Z AUTO 00000KT 10SM 24/23 A2999 RMK AO2
KDKR 210650Z AUTO 12004KT 10SM 24/23 A2999 RMK AO2
KDKR 210630Z AUTO 00000KT 10SM 24/23 A3000 RMK AO2
KDKR 210615Z AUTO 12003KT 10SM 24/23 A3000 RMK AO2
KDKR 210550Z AUTO 00000KT 10SM 24/23 A3000 RMK AO2
KDKR 210530Z AUTO 00000KT 10SM 25/23 A3000 RMK AO2
KDKR 210510Z AUTO 16004KT 10SM 24/23 A3000 RMK AO2
KDKR 210450Z AUTO 14004KT 10SM 24/22 A3000 RMK AO2
KDKR 210430Z AUTO 12004KT 10SM 24/22 A3001 RMK AO2
KDKR 210410Z AUTO 00000KT 10SM 24/22 A3001 RMK AO2
KDKR 210350Z AUTO 00000KT 10SM 24/22 A3001 RMK AO2
KDKR 210330Z AUTO 00000KT 10SM 24/22 A3001 RMK AO2
KDKR 210310Z AUTO 00000KT 10SM 24/22 A3001 RMK AO2
KDKR 210250Z AUTO 00000KT 10SM 25/22 A3001 RMK AO2
KDKR 210230Z AUTO 00000KT 10SM 25/22 A3001 RMK AO2
KDKR 210210Z AUTO 08003KT 10SM 25/22 A3000 RMK AO2
KDKR 210150Z AUTO 08004KT 10SM 26/23 A3000 RMK AO2
KDKR 210130Z AUTO 09003KT 10SM 27/23 A2999 RMK AO2
KDKR 210110Z AUTO 11003KT 10SM 27/23 A2997 RMK AO2 LTG DSNT NE AND E
KDKR 210050Z AUTO 00000KT 10SM VCTS 27/24 A2997 RMK AO2 LTG DSNT NE AND E
KDKR 210030Z AUTO 16003KT 10SM 27/23 A2996 RMK AO2 LTG DSNT NE AND E
KDKR 210010Z AUTO 18004KT 10SM 27/23 A2995 RMK AO2 LTG DSNT NE AND E AND SW
KDKR 202350Z AUTO 16004KT 10SM 28/23 A2995 RMK AO2 LTG DSNT E AND SE
KDKR 202330Z AUTO 17003KT 10SM 28/23 A2994 RMK AO2 LTG DSNT SE AND NW
KDKR 202310Z AUTO 00000KT 10SM 29/23 A2994 RMK AO2 LTG DSNT SE AND NW
KDKR 202250Z AUTO 19006KT 10SM 30/23 A2994 RMK AO2
KDKR 202230Z AUTO 18005KT 10SM 30/24 A2995 RMK AO2
KDKR 202210Z AUTO 00000KT 10SM 29/24 A2995 RMK AO2
KDKR 202150Z AUTO 17004KT 10SM 29/24 A2996 RMK AO2 LTG DSNT W AND NW
KDKR 202130Z AUTO 00000KT 10SM 29/24 A2995 RMK AO2
KDKR 202110Z AUTO 00000KT 10SM 28/24 A2996 RMK AO2
KDKR 202050Z AUTO 00000KT 10SM -RA 27/24 A2996 RMK AO2 LTG DSNT SW AND W
KDKR 202030Z AUTO 15004KT 10SM -RA 29/23 A2996 RMK AO2 LTG DSNT SW
KDKR 202010Z AUTO 00000KT 10SM 30/22 A2995 RMK AO2 LTG DSNT S AND SW
KDKR 201950Z AUTO 15003KT 10SM 30/22 A2996 RMK AO2 LTG DSNT SW
KDKR 201930Z AUTO 16005KT 10SM 31/22 A2997 RMK AO2
KDKR 201910Z AUTO 14007KT 10SM 32/22 A2998 RMK AO2 LTG DSNT S AND SW
KDKR 201850Z AUTO 21005KT 10SM 32/22 A2999 RMK AO2
KDKR 201830Z AUTO 00000KT 10SM 31/22 A2999 RMK AO2
KDKR 201810Z AUTO 16004KT 10SM 31/23 A3000 RMK AO2 LTG DSNT S
KDKR 201750Z AUTO 15003KT 10SM 32/23 A3001 RMK AO2
KDKR 201730Z AUTO 18003KT 10SM 31/23 A3001 RMK AO2
KDKR 201710Z AUTO 17006KT 10SM 32/23 A3002 RMK AO2
KDKR 201650Z AUTO 14003KT 10SM 30/23 A3003 RMK AO2 LTG DSNT S
KDKR 201630Z AUTO 16005KT 10SM 30/23 A3004 RMK AO2
KDKR 201610Z AUTO 18005KT 10SM 30/24 A3004 RMK AO2
KDKR 201550Z AUTO 22004KT 10SM 29/24 A3004 RMK AO2
KDKR 201530Z AUTO 15004KT 10SM 29/24 A3005 RMK AO2
KDKR 201510Z AUTO 20004KT 10SM 28/24 A3004 RMK AO2
KDKR 201450Z AUTO 13005KT 10SM 28/24 A3004 RMK AO2
KDKR 201430Z AUTO 17004KT 10SM 27/24 A3003 RMK AO2
KDKR 201410Z AUTO 00000KT 10SM 26/24 A3003 RMK AO2
KDKR 201350Z AUTO 00000KT 10SM 25/24 A3002 RMK AO2
KDKR 201330Z AUTO 00000KT 10SM 25/23 A3002 RMK AO2
KDKR 201310Z AUTO 00000KT 10SM 24/23 A3001 RMK AO2
KDKR 201250Z AUTO 00000KT 5SM BR 23/23 A3001 RMK AO2
KDKR 201230Z AUTO 00000KT 5SM BR 23/22 A3000 RMK AO2
KDKR 201210Z AUTO 00000KT 4SM BR 22/22 A3000 RMK AO2
KDKR 201150Z AUTO 00000KT 5SM BR 23/22 A2999 RMK AO2
KDKR 201130Z AUTO 00000KT 5SM BR 23/22 A2999 RMK AO2
KDKR 201110Z AUTO 00000KT 5SM BR 23/22 A2999 RMK AO2
KDKR 201050Z AUTO 00000KT 6SM BR 23/22 A2999 RMK AO2
KDKR 201030Z AUTO 00000KT 6SM BR 22/22 A2999 RMK AO2
KDKR 201010Z AUTO 00000KT 7SM 23/22 A2998 RMK AO2
KDKR 200950Z AUTO 00000KT 6SM BR 23/22 A2998 RMK AO2
KDKR 200930Z AUTO 00000KT 7SM 23/22 A2998 RMK AO2
KDKR 200910Z AUTO 00000KT 7SM 23/22 A2997 RMK AO2
KDKR 200850Z AUTO 00000KT 8SM 23/22 A2997 RMK AO2
KDKR 200830Z AUTO 00000KT 9SM 23/22 A2998 RMK AO2
KDKR 200810Z AUTO 00000KT 5SM BR 22/22 A2998 RMK AO2
KDKR 200750Z AUTO 00000KT 9SM 23/22 A2998 RMK AO2
KDKR 200730Z AUTO 00000KT 8SM 23/22 A2998 RMK AO2
KDKR 200710Z AUTO 00000KT 10SM 23/22 A2998 RMK AO2
KDKR 200650Z AUTO 00000KT 10SM 23/22 A2999 RMK AO2
KDKR 200630Z AUTO 00000KT 10SM 24/22 A2999 RMK AO2
KDKR 200610Z AUTO 00000KT 10SM 24/23 A2999 RMK AO2
KDKR 200550Z AUTO 00000KT 10SM 25/23 A3000 RMK AO2
KDKR 200530Z AUTO 00000KT 10SM 24/23 A3000 RMK AO2